Time;durP1;ratioP1;P1;durP2;ratioP2;P2;SDS_P1;SDS_P2;PMS_P1;PMS_P2;Temp;Humidity;BMP_temperature;BMP_pressure;BME280_temperature;BME280_humidity;BME280_pressure;Samples;Min_cycle;Max_cycle;Signal;HPM_P1;HPM_P2
2022/04/27 00:01:02;;;;;;;0.00;0.00;;;;;;;;;;2584151;22;19991;-88
2022/04/27 00:02:06;;;;;;;0.00;0.00;;;;;;;;;;2582640;23;19993;-88
2022/04/27 00:03:42;;;;;;;0.00;0.00;;;;;;;;;;2577810;23;20014;-87
2022/04/27 00:05:01;;;;;;;0.40;0.40;;;;;;;;;;2594215;22;20057;-87
2022/04/27 00:06:09;;;;;;;0.00;0.00;;;;;;;;;;2582798;23;20557;-87
2022/04/27 00:07:47;;;;;;;;;;;;;;;;;;;;;
2022/04/27 00:09:12;;;;;;;;;;;;;;;;;;;;;
2022/04/27 00:10:23;;;;;;;;;;;;;;;;;;;;;
2022/04/27 00:11:26;;;;;;;0.05;0.05;;;;;;;;;;2587518;23;20019;-87
2022/04/27 00:12:42;;;;;;;;;;;;;;;;;;;;;
2022/04/27 00:13:43;;;;;;;0.00;0.00;;;;;;;;;;2600153;22;20066;-87
2022/04/27 00:14:48;;;;;;;0.00;0.00;;;;;;;;;;2599901;22;19992;-87
2022/04/27 00:15:52;;;;;;;0.30;0.30;;;;;;;;;;2600009;22;20071;-87
2022/04/27 00:17:26;;;;;;;;;;;;;;;;;;;;;
2022/04/27 00:18:29;;;;;;;0.13;0.13;;;;;;;;;;2593550;22;19995;-86
2022/04/27 00:21:19;;;;;;;0.00;0.00;;;;;;;;;;2578990;22;20074;-86
2022/04/27 00:22:22;;;;;;;0.10;0.10;;;;;;;;;;2599908;22;20034;-88
2022/04/27 00:23:52;;;;;;;0.00;0.00;;;;;;;;;;2582431;23;19996;-87
2022/04/27 00:25:21;;;;;;;;;;;;;;;;;;;;;
2022/04/27 00:26:31;;;;;;;0.00;0.00;;;;;;;;;;2599778;22;20377;-87
2022/04/27 00:27:37;;;;;;;0.10;0.10;;;;;;;;;;2586680;23;20339;-87
2022/04/27 00:28:49;;;;;;;0.32;0.32;;;;;;;;;;2581340;23;20008;-87
2022/04/27 00:30:13;;;;;;;0.03;0.03;;;;;;;;;;2589376;22;20426;-87
2022/04/27 00:31:37;;;;;;;;;;;;;;;;;;;;;
2022/04/27 00:32:52;;;;;;;0.00;0.00;;;;;;;;;;2600038;22;19992;-87
2022/04/27 00:34:24;;;;;;;0.00;0.00;;;;;;;;;;2595200;22;20000;-87
2022/04/27 00:36:50;;;;;;;0.17;0.17;;;;;;;;;;2574330;22;20012;-87
2022/04/27 00:38:10;;;;;;;;;;;;;;;;;;;;;
2022/04/27 00:39:20;;;;;;;0.00;0.00;;;;;;;;;;2590681;22;20000;-88
2022/04/27 00:40:23;;;;;;;0.10;0.10;;;;;;;;;;2582474;23;20054;-87
2022/04/27 00:41:30;;;;;;;0.10;0.10;;;;;;;;;;2569855;23;20294;-88
2022/04/27 00:42:45;;;;;;;0.00;0.00;;;;;;;;;;2571074;23;20079;-87
2022/04/27 00:43:56;;;;;;;;;;;;;;;;;;;;;
2022/04/27 00:45:19;;;;;;;;;;;;;;;;;;;;;
2022/04/27 00:46:21;;;;;;;0.00;0.00;;;;;;;;;;2599666;22;19996;-86
2022/04/27 00:47:39;;;;;;;0.28;0.28;;;;;;;;;;2599804;22;20061;-88
2022/04/27 00:48:49;;;;;;;0.00;0.00;;;;;;;;;;2599777;22;20470;-87
2022/04/27 00:50:13;;;;;;;;;;;;;;;;;;;;;
2022/04/27 00:51:42;;;;;;;0.05;0.05;;;;;;;;;;2598654;22;20011;-87
2022/04/27 00:53:14;;;;;;;0.30;0.30;;;;;;;;;;2594795;22;20079;-87
2022/04/27 00:54:26;;;;;;;;;;;;;;;;;;;;;
2022/04/27 00:56:05;;;;;;;;;;;;;;;;;;;;;
2022/04/27 00:57:46;;;;;;;0.10;0.10;;;;;;;;;;2599615;22;19995;-88
2022/04/27 00:58:51;;;;;;;0.10;0.10;;;;;;;;;;2599693;22;20070;-87
2022/04/27 01:01:39;;;;;;;2.35;0.80;;;;;;;;;;2553050;23;20318;-87
2022/04/27 01:03:07;;;;;;;0.10;0.10;;;;;;;;;;2579211;23;20000;-87
2022/04/27 01:04:38;;;;;;;0.32;0.32;;;;;;;;;;2581006;22;20002;-86
2022/04/27 01:05:42;;;;;;;0.10;0.10;;;;;;;;;;2594681;22;20006;-87
2022/04/27 01:06:45;;;;;;;0.10;0.10;;;;;;;;;;2599283;22;19991;-87
2022/04/27 01:07:59;;;;;;;0.20;0.20;;;;;;;;;;2599776;22;20350;-87
2022/04/27 01:09:03;;;;;;;0.20;0.20;;;;;;;;;;2599834;22;19992;-86
2022/04/27 01:10:14;;;;;;;;;;;;;;;;;;;;;
2022/04/27 01:11:25;;;;;;;;;;;;;;;;;;;;;
2022/04/27 01:12:56;;;;;;;0.00;0.00;;;;;;;;;;2587805;22;20000;-87
2022/04/27 01:14:17;;;;;;;0.00;0.00;;;;;;;;;;2582333;23;19996;-87
2022/04/27 01:15:34;;;;;;;0.10;0.10;;;;;;;;;;2573868;23;20444;-88
2022/04/27 01:16:39;;;;;;;0.38;0.38;;;;;;;;;;2573040;23;20000;-86
2022/04/27 01:17:46;;;;;;;0.30;0.30;;;;;;;;;;2587564;22;20007;-87
2022/04/27 01:18:48;;;;;;;0.00;0.00;;;;;;;;;;2600199;22;19999;-89
2022/04/27 01:20:01;;;;;;;;;;;;;;;;;;;;;
2022/04/27 01:21:13;;;;;;;0.00;0.00;;;;;;;;;;2594809;22;20064;-88
2022/04/27 01:22:46;;;;;;;;;;;;;;;;;;;;;
2022/04/27 01:23:50;;;;;;;0.43;0.43;;;;;;;;;;2593472;22;20005;-87
2022/04/27 01:25:00;;;;;;;;;;;;;;;;;;;;;
2022/04/27 01:26:25;;;;;;;0.10;0.10;;;;;;;;;;2599824;22;19996;-87
2022/04/27 01:27:41;;;;;;;;;;;;;;;;;;;;;
2022/04/27 01:28:47;;;;;;;0.10;0.10;;;;;;;;;;2599526;22;20002;-87
2022/04/27 01:29:48;;;;;;;0.40;0.40;;;;;;;;;;2599714;22;20076;-87
2022/04/27 01:31:07;;;;;;;0.30;0.30;;;;;;;;;;2582095;23;20003;-87
2022/04/27 01:32:10;;;;;;;0.30;0.30;;;;;;;;;;2572509;23;19996;-87
2022/04/27 01:33:13;;;;;;;0.10;0.10;;;;;;;;;;2586926;22;19992;-87
2022/04/27 01:34:16;;;;;;;0.10;0.10;;;;;;;;;;2582123;23;20039;-87
2022/04/27 01:35:17;;;;;;;0.32;0.32;;;;;;;;;;2570085;23;20323;-87
2022/04/27 01:36:30;;;;;;;;;;;;;;;;;;;;;
2022/04/27 01:39:13;;;;;;;0.10;0.10;;;;;;;;;;2599783;22;19996;-87
2022/04/27 01:40:36;;;;;;;0.00;0.00;;;;;;;;;;2594883;22;20316;-86
2022/04/27 01:42:03;;;;;;;0.55;0.55;;;;;;;;;;2594678;22;20050;-87
2022/04/27 01:43:19;;;;;;;0.20;0.20;;;;;;;;;;2582117;23;19992;-86
2022/04/27 01:44:40;;;;;;;0.10;0.10;;;;;;;;;;2589554;22;19992;-87
2022/04/27 01:47:14;;;;;;;0.10;0.10;;;;;;;;;;2587186;22;20379;-87
2022/04/27 01:48:31;;;;;;;0.20;0.20;;;;;;;;;;2582030;23;20356;-87
2022/04/27 01:50:03;;;;;;;0.10;0.10;;;;;;;;;;2577168;23;20001;-87
2022/04/27 01:51:18;;;;;;;0.00;0.00;;;;;;;;;;2582055;23;19992;-86
2022/04/27 01:55:17;;;;;;;;;;;;;;;;;;;;;
2022/04/27 01:56:35;;;;;;;0.10;0.10;;;;;;;;;;2599672;22;20327;-86
2022/04/27 01:57:35;;;;;;;0.82;0.82;;;;;;;;;;2599837;22;20000;-87
2022/04/27 01:58:40;;;;;;;0.10;0.10;;;;;;;;;;2599230;22;20007;-86
2022/04/27 01:59:46;;;;;;;0.10;0.10;;;;;;;;;;2581842;23;19996;-86
2022/04/27 02:00:53;;;;;;;0.30;0.30;;;;;;;;;;2586436;23;20427;-87
2022/04/27 02:02:17;;;;;;;0.10;0.10;;;;;;;;;;2582961;22;20027;-86
2022/04/27 02:03:27;;;;;;;0.05;0.05;;;;;;;;;;2599333;22;19996;-86
2022/04/27 02:04:27;;;;;;;0.10;0.10;;;;;;;;;;2599703;22;20448;-87
2022/04/27 02:05:33;;;;;;;;;;;;;;;;;;2582750;23;20231;-86
2022/04/27 02:06:40;;;;;;;0.10;0.10;;;;;;;;;;2587527;22;19903;-87
2022/04/27 02:07:43;;;;;;;0.10;0.10;;;;;;;;;;2582287;23;20000;-87
2022/04/27 02:08:46;;;;;;;0.00;0.00;;;;;;;;;;2582553;22;20083;-86
2022/04/27 02:10:02;;;;;;;0.10;0.10;;;;;;;;;;2599209;22;19991;-86
2022/04/27 02:11:15;;;;;;;;;;;;;;;;;;;;;
2022/04/27 02:12:21;;;;;;;0.20;0.20;;;;;;;;;;2589016;22;20031;-86
2022/04/27 02:13:55;;;;;;;0.10;0.10;;;;;;;;;;2599731;22;20003;-86
2022/04/27 02:15:08;;;;;;;;;;;;;;;;;;;;;
2022/04/27 02:16:09;;;;;;;0.00;0.00;;;;;;;;;;2599251;22;20326;-86
2022/04/27 02:17:16;;;;;;;0.00;0.00;;;;;;;;;;2598514;22;20075;-86
2022/04/27 02:18:19;;;;;;;0.10;0.10;;;;;;;;;;2585117;23;20362;-85
2022/04/27 02:19:44;;;;;;;0.20;0.20;;;;;;;;;;2586976;22;20065;-86
2022/04/27 02:20:48;;;;;;;0.10;0.10;;;;;;;;;;2600552;22;19999;-85
2022/04/27 02:21:49;;;;;;;0.10;0.10;;;;;;;;;;2595385;22;20423;-85
2022/04/27 02:23:19;;;;;;;0.00;0.00;;;;;;;;;;2599854;22;20003;-85
2022/04/27 02:24:58;;;;;;;0.10;0.10;;;;;;;;;;2600372;22;20311;-86
2022/04/27 02:26:01;;;;;;;0.10;0.10;;;;;;;;;;2583313;23;20479;-85
2022/04/27 02:27:07;;;;;;;0.22;0.22;;;;;;;;;;2570612;23;20324;-85
2022/04/27 02:28:09;;;;;;;0.10;0.10;;;;;;;;;;2588360;22;19992;-87
2022/04/27 02:29:15;;;;;;;0.17;0.17;;;;;;;;;;2600491;22;20077;-87
2022/04/27 02:30:18;;;;;;;0.10;0.10;;;;;;;;;;2600299;22;19988;-87
2022/04/27 02:31:29;;;;;;;;;;;;;;;;;;;;;
2022/04/27 02:32:30;;;;;;;0.10;0.10;;;;;;;;;;2595564;22;20319;-87
2022/04/27 02:33:30;;;;;;;0.00;0.00;;;;;;;;;;2600347;22;20062;-85
2022/04/27 02:34:31;;;;;;;0.10;0.10;;;;;;;;;;2600489;22;20004;-85
2022/04/27 02:35:52;;;;;;;;;;;;;;;;;;2583261;23;20046;-85
2022/04/27 02:36:55;;;;;;;0.10;0.10;;;;;;;;;;2586639;22;20261;-85
2022/04/27 02:37:58;;;;;;;0.50;0.50;;;;;;;;;;2582907;23;20000;-87
2022/04/27 02:39:04;;;;;;;0.30;0.30;;;;;;;;;;2587363;22;20019;-87
2022/04/27 02:40:12;;;;;;;0.10;0.10;;;;;;;;;;2582765;23;20039;-86
2022/04/27 02:41:21;;;;;;;0.00;0.00;;;;;;;;;;2588920;22;19988;-84
2022/04/27 02:42:24;;;;;;;0.15;0.15;;;;;;;;;;2583000;23;20415;-85
2022/04/27 02:43:47;;;;;;;0.17;0.17;;;;;;;;;;2587574;22;20111;-85
2022/04/27 02:44:48;;;;;;;0.03;0.03;;;;;;;;;;2587021;23;20000;-86
2022/04/27 02:45:58;;;;;;;0.10;0.10;;;;;;;;;;2587006;23;20021;-85
2022/04/27 02:46:58;;;;;;;0.30;0.30;;;;;;;;;;2600393;22;20407;-87
2022/04/27 02:48:04;;;;;;;0.32;0.32;;;;;;;;;;2582276;23;19992;-87
2022/04/27 02:52:34;;;;;;;0.28;0.28;;;;;;;;;;2600235;22;20019;-87
2022/04/27 02:53:35;;;;;;;0.10;0.10;;;;;;;;;;2582629;23;20011;-85
2022/04/27 02:54:44;;;;;;;0.55;0.55;;;;;;;;;;2587127;22;20474;-85
2022/04/27 02:56:07;;;;;;;0.10;0.10;;;;;;;;;;2600326;22;20011;-85
2022/04/27 02:57:18;;;;;;;0.28;0.28;;;;;;;;;;2582886;23;19992;-87
2022/04/27 02:58:26;;;;;;;0.25;0.25;;;;;;;;;;2589154;22;20007;-86
2022/04/27 02:59:50;;;;;;;0.10;0.10;;;;;;;;;;2586825;23;20032;-85
2022/04/27 03:01:20;;;;;;;;;;;;;;;;;;;;;
2022/04/27 03:02:29;;;;;;;0.10;0.10;;;;;;;;;;2600184;22;20026;-86
2022/04/27 03:10:23;;;;;;;0.00;0.00;;;;;;;;;;2600526;22;20004;-85
2022/04/27 03:11:32;;;;;;;0.10;0.10;;;;;;;;;;2599890;22;20019;-82
2022/04/27 03:12:45;;;;;;;0.47;0.47;;;;;;;;;;2586818;23;20489;-85
2022/04/27 03:14:16;;;;;;;0.00;0.00;;;;;;;;;;2583255;23;20023;-87
2022/04/27 03:15:56;;;;;;;0.17;0.17;;;;;;;;;;2576171;23;19992;-87
2022/04/27 03:17:02;;;;;;;0.75;0.73;;;;;;;;;;2590653;22;19995;-86
2022/04/27 03:18:20;;;;;;;0.20;0.20;;;;;;;;;;2592916;22;19999;-87
2022/04/27 03:19:20;;;;;;;0.10;0.10;;;;;;;;;;2582422;23;20007;-87
2022/04/27 03:20:42;;;;;;;;;;;;;;;;;;;;;
2022/04/27 03:22:16;;;;;;;;;;;;;;;;;;;;;
2022/04/27 03:25:30;;;;;;;;;;;;;;;;;;;;;
2022/04/27 03:28:07;;;;;;;;;;;;;;;;;;;;;
2022/04/27 03:29:23;;;;;;;;;;;;;;;;;;;;;
2022/04/27 03:31:06;;;;;;;0.30;0.30;;;;;;;;;;2600084;22;19996;-86
2022/04/27 03:32:28;;;;;;;0.13;0.13;;;;;;;;;;2600046;22;19987;-86
2022/04/27 03:34:12;;;;;;;;;;;;;;;;;;2596157;22;20065;-86
2022/04/27 03:37:38;;;;;;;;;;;;;;;;;;;;;
2022/04/27 03:38:49;;;;;;;;;;;;;;;;;;;;;
2022/04/27 03:39:52;;;;;;;0.10;0.10;;;;;;;;;;2599897;22;19999;-88
2022/04/27 03:43:18;;;;;;;0.10;0.10;;;;;;;;;;2595510;22;20457;-88
2022/04/27 03:44:19;;;;;;;0.50;0.50;;;;;;;;;;2600621;22;20002;-86
2022/04/27 03:45:37;;;;;;;;;;;;;;;;;;2600663;22;20425;-87
2022/04/27 03:48:15;;;;;;;2.90;0.55;;;;;;;;;;2595642;22;20010;-86
2022/04/27 03:50:09;;;;;;;;;;;;;;;;;;;;;
2022/04/27 03:52:03;;;;;;;;;;;;;;;;;;;;;
2022/04/27 03:53:24;;;;;;;0.10;0.10;;;;;;;;;;2600225;22;19992;-88
2022/04/27 03:55:05;;;;;;;;;;;;;;;;;;;;;
2022/04/27 03:56:13;;;;;;;0.10;0.10;;;;;;;;;;2590285;22;20499;-87
2022/04/27 03:57:26;;;;;;;;;;;;;;;;;;;;;
2022/04/27 03:58:31;;;;;;;0.10;0.10;;;;;;;;;;2589091;22;20027;-87
2022/04/27 04:01:28;;;;;;;0.20;0.20;;;;;;;;;;2587212;22;20082;-87
2022/04/27 04:02:31;;;;;;;0.45;0.45;;;;;;;;;;2579930;23;20007;-87
2022/04/27 04:03:52;;;;;;;0.10;0.10;;;;;;;;;;2570228;23;20054;-87
2022/04/27 04:05:07;;;;;;;0.35;0.30;;;;;;;;;;2586248;22;20047;-87
2022/04/27 04:06:23;;;;;;;0.10;0.10;;;;;;;;;;2594601;22;19991;-87
2022/04/27 04:07:34;;;;;;;0.10;0.10;;;;;;;;;;2582377;23;19996;-87
2022/04/27 04:08:35;;;;;;;;;;;;;;;;;;2589669;22;20366;-87
2022/04/27 04:11:19;;;;;;;0.10;0.10;;;;;;;;;;2583267;22;19995;-86
2022/04/27 04:12:31;;;;;;;0.10;0.10;;;;;;;;;;2586658;23;19992;-86
2022/04/27 04:13:40;;;;;;;0.00;0.00;;;;;;;;;;2572383;23;19997;-87
2022/04/27 04:14:52;;;;;;;0.10;0.10;;;;;;;;;;2588053;22;20057;-87
2022/04/27 04:16:35;;;;;;;0.13;0.13;;;;;;;;;;2582440;23;20027;-87
2022/04/27 04:19:22;;;;;;;0.35;0.35;;;;;;;;;;2595685;22;19999;-87
2022/04/27 04:20:46;;;;;;;;;;;;;;;;;;;;;
2022/04/27 04:22:13;;;;;;;0.20;0.20;;;;;;;;;;2594729;22;19996;-87
2022/04/27 04:23:54;;;;;;;0.28;0.28;;;;;;;;;;2579182;22;20066;-87
2022/04/27 04:29:42;;;;;;;0.00;0.00;;;;;;;;;;2599969;22;19999;-87
2022/04/27 04:31:24;;;;;;;0.43;0.43;;;;;;;;;;2586370;23;20070;-88
2022/04/27 04:32:35;;;;;;;0.10;0.10;;;;;;;;;;2576047;23;20300;-86
2022/04/27 04:33:56;;;;;;;1.70;1.60;;;;;;;;;;2571804;23;20379;-88
2022/04/27 04:35:11;;;;;;;0.00;0.00;;;;;;;;;;2585811;22;20011;-87
2022/04/27 04:38:10;;;;;;;0.22;0.22;;;;;;;;;;2544357;23;20008;-87
2022/04/27 04:39:31;;;;;;;0.43;0.43;;;;;;;;;;2548695;23;19998;-87
2022/04/27 04:42:22;;;;;;;0.00;0.00;;;;;;;;;;2571550;23;20052;-87
2022/04/27 04:43:43;;;;;;;0.00;0.00;;;;;;;;;;2586907;23;19996;-88
2022/04/27 04:46:20;;;;;;;0.00;0.00;;;;;;;;;;2582918;23;20007;-86
2022/04/27 04:47:47;;;;;;;0.00;0.00;;;;;;;;;;2586853;23;20047;-87
2022/04/27 04:49:07;;;;;;;0.10;0.10;;;;;;;;;;2586816;23;20003;-88
2022/04/27 04:50:40;;;;;;;0.13;0.10;;;;;;;;;;2587034;23;20388;-88
2022/04/27 04:54:05;;;;;;;;;;;;;;;;;;;;;
2022/04/27 04:55:29;;;;;;;0.00;0.00;;;;;;;;;;2586700;23;19992;-87
2022/04/27 05:01:52;;;;;;;0.00;0.00;;;;;;;;;;2519257;23;20006;-87
2022/04/27 05:04:38;;;;;;;0.22;0.20;;;;;;;;;;2520061;23;19999;-86
2022/04/27 05:05:49;;;;;;;0.20;0.20;;;;;;;;;;2524155;23;19998;-87
2022/04/27 05:07:01;;;;;;;0.32;0.20;;;;;;;;;;2582134;23;20071;-87
2022/04/27 05:08:37;;;;;;;;;;;;;;;;;;;;;
2022/04/27 05:10:14;;;;;;;;;;;;;;;;;;;;;
2022/04/27 05:11:33;;;;;;;;;;;;;;;;;;;;;
2022/04/27 05:13:03;;;;;;;0.00;0.00;;;;;;;;;;2586481;23;20061;-88
2022/04/27 05:56:08;;;;;;;0.00;0.00;;;;;;;;;;2581659;22;220600;-85
2022/04/27 05:57:31;;;;;;;0.03;0.03;;;;;;;;;;2590840;22;20012;-85
2022/04/27 05:58:34;;;;;;;0.08;0.08;;;;;;;;;;2595694;22;20403;-85
2022/04/27 06:01:16;;;;;;;0.10;0.10;;;;;;;;;;2564958;23;20074;-85
2022/04/27 06:02:44;;;;;;;0.00;0.00;;;;;;;;;;2590586;22;19992;-84
2022/04/27 06:04:16;;;;;;;0.00;0.00;;;;;;;;;;2573047;23;20016;-85
2022/04/27 06:05:21;;;;;;;0.00;0.00;;;;;;;;;;2583939;22;19988;-85
2022/04/27 06:06:39;;;;;;;0.00;0.00;;;;;;;;;;2590472;22;19992;-87
2022/04/27 06:08:10;;;;;;;;;;;;;;;;;;;;;
2022/04/27 06:09:15;;;;;;;0.00;0.00;;;;;;;;;;2583050;22;20008;-86
2022/04/27 06:10:39;;;;;;;;;;;;;;;;;;;;;
2022/04/27 06:13:40;;;;;;;0.00;0.00;;;;;;;;;;2574683;23;20000;-84
2022/04/27 06:18:27;;;;;;;0.20;0.20;;;;;;;;;;2533897;23;19998;-84
2022/04/27 06:19:51;;;;;;;0.52;0.00;;;;;;;;;;2585533;23;20022;-85
2022/04/27 06:21:41;;;;;;;;;;;;;;;;;;;;;
2022/04/27 06:22:44;;;;;;;0.00;0.00;;;;;;;;;;2578472;22;20000;-86
2022/04/27 06:24:06;;;;;;;0.00;0.00;;;;;;;;;;2576901;23;19997;-85
2022/04/27 06:25:44;;;;;;;;;;;;;;;;;;;;;
2022/04/27 06:26:57;;;;;;;0.00;0.00;;;;;;;;;;2590181;22;20015;-85
2022/04/27 06:28:18;;;;;;;0.00;0.00;;;;;;;;;;2590198;22;20339;-85
2022/04/27 06:30:50;;;;;;;0.03;0.00;;;;;;;;;;2579543;23;20019;-86
2022/04/27 06:32:23;;;;;;;0.00;0.00;;;;;;;;;;2590082;22;19991;-86
2022/04/27 06:34:47;;;;;;;0.00;0.00;;;;;;;;;;2551428;23;20395;-85
2022/04/27 06:37:43;;;;;;;0.00;0.00;;;;;;;;;;2579482;23;20014;-85
2022/04/27 06:39:04;;;;;;;0.00;0.00;;;;;;;;;;2589749;22;19996;-84
2022/04/27 06:40:15;;;;;;;0.00;0.00;;;;;;;;;;2572979;23;20048;-86
2022/04/27 06:42:59;;;;;;;0.00;0.00;;;;;;;;;;2577418;23;20324;-86
2022/04/27 06:44:10;;;;;;;0.00;0.00;;;;;;;;;;2577006;23;20031;-86
2022/04/27 06:45:40;;;;;;;0.00;0.00;;;;;;;;;;2562385;23;20068;-87
2022/04/27 06:46:51;;;;;;;0.10;0.10;;;;;;;;;;2583574;22;20434;-87
2022/04/27 06:48:03;;;;;;;0.00;0.00;;;;;;;;;;2590030;22;19995;-87
2022/04/27 06:51:00;;;;;;;0.00;0.00;;;;;;;;;;2561639;23;19992;-86
2022/04/27 06:52:13;;;;;;;0.05;0.05;;;;;;;;;;2582127;23;20303;-86
2022/04/27 06:53:14;;;;;;;0.00;0.00;;;;;;;;;;2587463;23;19996;-85
2022/04/27 06:54:28;;;;;;;0.00;0.00;;;;;;;;;;2587541;23;20343;-86
2022/04/27 06:55:34;;;;;;;0.00;0.00;;;;;;;;;;2587243;23;20004;-86
2022/04/27 06:56:37;;;;;;;0.00;0.00;;;;;;;;;;2587472;23;20054;-86
2022/04/27 06:59:59;;;;;;;;;;;;;;;;;;;;;
2022/04/27 07:01:21;;;;;;;0.00;0.00;;;;;;;;;;2587456;23;19991;-86
2022/04/27 07:04:23;;;;;;;0.00;0.00;;;;;;;;;;2583020;23;20137;-85
2022/04/27 07:05:32;;;;;;;0.10;0.00;;;;;;;;;;2569963;23;19992;-86
2022/04/27 07:07:00;;;;;;;0.00;0.00;;;;;;;;;;2559220;23;20001;-87
2022/04/27 07:08:31;;;;;;;0.00;0.00;;;;;;;;;;2579990;22;20003;-86
2022/04/27 07:10:07;;;;;;;0.00;0.00;;;;;;;;;;2587329;23;20281;-86
2022/04/27 07:12:46;;;;;;;0.00;0.00;;;;;;;;;;2566883;23;20007;-88
2022/04/27 07:14:15;;;;;;;0.00;0.00;;;;;;;;;;2571574;23;19997;-86
2022/04/27 08:09:01;;;;;;;0.00;0.00;;;;;;;;;;2571477;22;20435;-88
2022/04/27 08:10:19;;;;;;;0.00;0.00;;;;;;;;;;2592148;22;19995;-90
2022/04/27 08:11:29;;;;;;;0.00;0.00;;;;;;;;;;2615246;22;19987;-85
2022/04/27 08:13:03;;;;;;;;;;;;;;;;;;;;;
2022/04/27 08:14:15;;;;;;;0.00;0.00;;;;;;;;;;2593781;22;20003;-87
2022/04/27 08:16:04;;;;;;;0.00;0.00;;;;;;;;;;2603262;22;20078;-86
2022/04/27 08:17:33;;;;;;;0.00;0.00;;;;;;;;;;2598476;22;20008;-90
2022/04/27 08:18:57;;;;;;;;;;;;;;;;;;;;;
2022/04/27 08:23:33;;;;;;;;;;;;;;;;;;;;;
2022/04/27 08:24:47;;;;;;;0.00;0.00;;;;;;;;;;2603255;22;19992;-90
2022/04/27 08:27:55;;;;;;;0.03;0.03;;;;;;;;;;2572033;23;20000;-91
2022/04/27 08:30:29;;;;;;;;;;;;;;;;;;;;;
2022/04/27 08:31:43;;;;;;;;;;;;;;;;;;;;;
2022/04/27 08:32:59;;;;;;;;;;;;;;;;;;;;;
2022/04/27 08:34:31;;;;;;;0.00;0.00;;;;;;;;;;2602827;22;19999;-88
2022/04/27 08:36:18;;;;;;;0.00;0.00;;;;;;;;;;2615203;22;19994;-93
2022/04/27 08:38:07;;;;;;;0.00;0.00;;;;;;;;;;2601135;22;20705;-91
2022/04/27 08:40:52;;;;;;;0.08;0.08;;;;;;;;;;2578154;22;20011;-90
2022/04/27 08:42:37;;;;;;;;;;;;;;;;;;;;;
2022/04/27 08:44:04;;;;;;;0.10;0.10;;;;;;;;;;2602406;22;20527;-91
2022/04/27 08:45:21;;;;;;;0.00;0.00;;;;;;;;;;2600086;22;20027;-89
2022/04/27 08:46:43;;;;;;;0.00;0.00;;;;;;;;;;2603301;22;19987;-92
2022/04/27 08:48:16;;;;;;;0.00;0.00;;;;;;;;;;2603256;22;20435;-93
2022/04/27 08:49:54;;;;;;;0.00;0.00;;;;;;;;;;2603129;22;20006;-91
2022/04/27 08:51:11;;;;;;;0.00;0.00;;;;;;;;;;2608010;22;19995;-88
2022/04/27 08:52:52;;;;;;;0.00;0.00;;;;;;;;;;2612281;22;20025;-90
2022/04/27 08:54:18;;;;;;;0.00;0.00;;;;;;;;;;2602951;22;19996;-89
2022/04/27 08:57:26;;;;;;;0.13;0.00;;;;;;;;;;2539881;23;20016;-87
2022/04/27 08:58:32;;;;;;;0.00;0.00;;;;;;;;;;2602862;22;20002;-90
2022/04/27 08:59:38;;;;;;;0.00;0.00;;;;;;;;;;2602947;22;20217;-89
2022/04/27 09:01:22;;;;;;;0.00;0.00;;;;;;;;;;2602943;22;19996;-91
2022/04/27 09:02:37;;;;;;;;;;;;;;;;;;;;;
2022/04/27 09:04:03;;;;;;;0.10;0.00;;;;;;;;;;2612932;22;20003;-93
2022/04/27 09:05:29;;;;;;;0.20;0.20;;;;;;;;;;2607670;22;20059;-92
2022/04/27 09:06:57;;;;;;;0.00;0.00;;;;;;;;;;2599116;22;19992;-92
2022/04/27 09:08:36;;;;;;;0.20;0.20;;;;;;;;;;2595312;22;20070;-91
2022/04/27 09:14:06;;;;;;;0.00;0.00;;;;;;;;;;2595867;22;20347;-90
2022/04/27 09:15:39;;;;;;;0.00;0.00;;;;;;;;;;2595124;22;20584;-91
2022/04/27 09:21:55;;;;;;;0.00;0.00;;;;;;;;;;2600010;22;20422;-89
2022/04/27 09:23:40;;;;;;;0.00;0.00;;;;;;;;;;2607948;22;20007;-91
2022/04/27 09:25:13;;;;;;;0.00;0.00;;;;;;;;;;2585301;22;19995;-89
2022/04/27 09:26:43;;;;;;;0.10;0.10;;;;;;;;;;2595785;22;20064;-94
2022/04/27 09:27:47;;;;;;;0.00;0.00;;;;;;;;;;2600463;22;20331;-88
2022/04/27 09:29:37;;;;;;;0.00;0.00;;;;;;;;;;2600279;22;19996;-92
2022/04/27 09:31:03;;;;;;;;;;;;;;;;;;;;;
2022/04/27 09:35:02;;;;;;;0.00;0.00;;;;;;;;;;2547860;23;20079;-90
2022/04/27 09:36:26;;;;;;;0.00;0.00;;;;;;;;;;2572124;22;20030;-96
2022/04/27 09:37:46;;;;;;;0.10;0.10;;;;;;;;;;2599692;22;20499;-93
2022/04/27 09:38:59;;;;;;;0.10;0.10;;;;;;;;;;2572054;23;20074;-93
2022/04/27 09:41:45;;;;;;;0.05;0.00;;;;;;;;;;2579943;22;19996;-92
2022/04/27 09:43:09;;;;;;;0.00;0.00;;;;;;;;;;2608172;22;20060;-92
2022/04/27 09:44:44;;;;;;;0.00;0.00;;;;;;;;;;2595144;22;20305;-91
2022/04/27 09:46:36;;;;;;;0.00;0.00;;;;;;;;;;2600005;22;19991;-94
2022/04/27 09:51:19;;;;;;;0.40;0.20;;;;;;;;;;2584001;22;20038;-91
2022/04/27 09:52:23;;;;;;;0.00;0.00;;;;;;;;;;2576946;22;19999;-89
2022/04/27 09:54:02;;;;;;;0.10;0.10;;;;;;;;;;2599748;22;20361;-90
2022/04/27 09:55:12;;;;;;;0.10;0.10;;;;;;;;;;2597006;22;20006;-92
2022/04/27 09:56:28;;;;;;;0.00;0.00;;;;;;;;;;2601814;22;19996;-90
2022/04/27 09:58:24;;;;;;;;;;;;;;;;;;;;;
2022/04/27 09:59:44;;;;;;;2.58;0.03;;;;;;;;;;2601120;22;20003;-89
2022/04/27 10:01:26;;;;;;;0.52;0.30;;;;;;;;;;2602526;22;19992;-96
2022/04/27 10:02:50;;;;;;;0.00;0.00;;;;;;;;;;2577113;22;20006;-86
2022/04/27 10:04:25;;;;;;;0.08;0.00;;;;;;;;;;2599757;22;20372;-94
2022/04/27 10:06:18;;;;;;;;;;;;;;;;;;;;;
2022/04/27 10:07:34;;;;;;;;;;;;;;;;;;;;;
2022/04/27 10:08:41;;;;;;;0.00;0.00;;;;;;;;;;2612593;22;19995;-87
2022/04/27 10:10:10;;;;;;;0.00;0.00;;;;;;;;;;2595293;22;20491;-91
2022/04/27 10:11:21;;;;;;;0.00;0.00;;;;;;;;;;2605635;22;20410;-91
2022/04/27 10:12:48;;;;;;;0.00;0.00;;;;;;;;;;2594931;22;20038;-89
2022/04/27 10:14:25;;;;;;;0.00;0.00;;;;;;;;;;2605186;22;20353;-89
2022/04/27 10:16:14;;;;;;;0.00;0.00;;;;;;;;;;2612856;22;19987;-92
2022/04/27 10:17:23;;;;;;;0.00;0.00;;;;;;;;;;2612426;22;20060;-90
2022/04/27 10:20:29;;;;;;;0.00;0.00;;;;;;;;;;2591701;22;20418;-90
2022/04/27 10:24:06;;;;;;;;;;;;;;;;;;2582083;22;19995;-91
2022/04/27 10:25:18;;;;;;;0.45;0.20;;;;;;;;;;2544521;23;20008;-88
2022/04/27 10:27:18;;;;;;;;;;;;;;;;;;;;;
2022/04/27 10:28:34;;;;;;;;;;;;;;;;;;;;;
2022/04/27 10:30:04;;;;;;;0.00;0.00;;;;;;;;;;2561076;23;20064;-88
2022/04/27 10:31:40;;;;;;;;;;;;;;;;;;;;;
2022/04/27 10:33:43;;;;;;;;;;;;;;;;;;;;;
2022/04/27 10:35:17;;;;;;;0.00;0.00;;;;;;;;;;2612825;22;20086;-89
2022/04/27 10:36:44;;;;;;;0.00;0.00;;;;;;;;;;2612884;22;20006;-87
2022/04/27 10:38:01;;;;;;;;;;;;;;;;;;;;;
2022/04/27 10:39:43;;;;;;;0.00;0.00;;;;;;;;;;2602661;22;20437;-93
2022/04/27 10:41:23;;;;;;;0.00;0.00;;;;;;;;;;2595184;22;20067;-89
2022/04/27 10:42:56;;;;;;;0.00;0.00;;;;;;;;;;2557916;23;20020;-92
2022/04/27 10:45:27;;;;;;;0.00;0.00;;;;;;;;;;2534932;23;20034;-89
2022/04/27 10:47:26;;;;;;;0.00;0.00;;;;;;;;;;2539135;23;20049;-94
2022/04/27 10:49:19;;;;;;;;;;;;;;;;;;;;;
2022/04/27 10:52:51;;;;;;;0.00;0.00;;;;;;;;;;2598550;22;20027;-92
2022/04/27 10:54:17;;;;;;;0.00;0.00;;;;;;;;;;2611935;22;20076;-89
2022/04/27 10:55:40;;;;;;;0.00;0.00;;;;;;;;;;2598665;22;20003;-91
2022/04/27 10:58:43;;;;;;;0.00;0.00;;;;;;;;;;2580823;22;20326;-90
2022/04/27 11:00:18;;;;;;;0.05;0.05;;;;;;;;;;2612515;22;20049;-92
2022/04/27 11:02:09;;;;;;;0.00;0.00;;;;;;;;;;2612705;22;20018;-90
2022/04/27 11:03:49;;;;;;;;;;;;;;;;;;;;;
2022/04/27 11:05:30;;;;;;;;;;;;;;;;;;;;;
2022/04/27 11:07:13;;;;;;;;;;;;;;;;;;;;;
2022/04/27 11:08:30;;;;;;;0.00;0.00;;;;;;;;;;2561452;23;20081;-96
2022/04/27 11:10:11;;;;;;;;;;;;;;;;;;;;;
2022/04/27 11:11:34;;;;;;;0.00;0.00;;;;;;;;;;2557531;23;20005;-95
2022/04/27 11:12:48;;;;;;;;;;;;;;;;;;;;;
2022/04/27 11:14:38;;;;;;;0.00;0.00;;;;;;;;;;2615397;22;20046;-93
2022/04/27 11:16:09;;;;;;;;;;;;;;;;;;;;;
2022/04/27 11:19:42;;;;;;;0.00;0.00;;;;;;;;;;2592055;22;20006;-91
2022/04/27 11:21:00;;;;;;;;;;;;;;;;;;;;;
2022/04/27 11:24:14;;;;;;;;;;;;;;;;;;2608759;22;20023;-93
2022/04/27 11:25:36;;;;;;;0.10;0.08;;;;;;;;;;2603401;22;20178;-95
2022/04/27 11:27:08;;;;;;;;;;;;;;;;;;;;;
2022/04/27 11:29:41;;;;;;;0.20;0.20;;;;;;;;;;2559209;23;20008;-96
2022/04/27 11:31:02;;;;;;;0.00;0.00;;;;;;;;;;2596305;22;20011;-95
2022/04/27 11:33:58;;;;;;;0.00;0.00;;;;;;;;;;2570827;22;20011;-94
2022/04/27 11:35:31;;;;;;;0.00;0.00;;;;;;;;;;2609685;22;19999;-93
2022/04/27 11:38:37;;;;;;;0.00;0.00;;;;;;;;;;2591566;22;20322;-93
2022/04/27 11:41:56;;;;;;;0.00;0.00;;;;;;;;;;2581184;22;20005;-93
2022/04/27 11:43:22;;;;;;;0.20;0.20;;;;;;;;;;2594201;22;20450;-95
2022/04/27 11:44:48;;;;;;;0.00;0.00;;;;;;;;;;2597546;22;19987;-96
2022/04/27 11:46:58;;;;;;;0.00;0.00;;;;;;;;;;2602122;22;20082;-93
2022/04/27 11:48:36;;;;;;;0.90;0.45;;;;;;;;;;2602524;22;20074;-95
2022/04/27 11:50:08;;;;;;;;;;;;;;;;;;;;;
2022/04/27 11:51:25;;;;;;;0.00;0.00;;;;;;;;;;2597491;22;20003;-95
2022/04/27 11:53:11;;;;;;;0.00;0.00;;;;;;;;;;2594477;22;19987;-92
2022/04/27 11:55:20;;;;;;;;;;;;;;;;;;;;;
2022/04/27 11:56:45;;;;;;;0.00;0.00;;;;;;;;;;2561298;23;19993;-95
2022/04/27 11:57:55;;;;;;;0.00;0.00;;;;;;;;;;2544922;23;20448;-89
2022/04/27 11:59:15;;;;;;;0.00;0.00;;;;;;;;;;2533400;23;20018;-91
2022/04/27 12:00:34;;;;;;;0.00;0.00;;;;;;;;;;2553514;22;20000;-90
2022/04/27 12:01:54;;;;;;;0.00;0.00;;;;;;;;;;2603354;22;19996;-94
2022/04/27 12:03:18;;;;;;;;;;;;;;;;;;;;;
2022/04/27 12:04:43;;;;;;;;;;;;;;;;;;;;;
2022/04/27 12:06:10;;;;;;;0.00;0.00;;;;;;;;;;2612592;22;20075;-88
2022/04/27 12:07:32;;;;;;;0.95;0.35;;;;;;;;;;2607585;22;20090;-89
2022/04/27 12:08:43;;;;;;;0.10;0.10;;;;;;;;;;2612659;22;20027;-93
2022/04/27 12:10:40;;;;;;;0.03;0.03;;;;;;;;;;2594854;22;20311;-95
2022/04/27 12:11:55;;;;;;;0.13;0.13;;;;;;;;;;2556224;23;20011;-94
2022/04/27 12:15:26;;;;;;;;;;;;;;;;;;;;;